sensor_id;sensor_type;location;lat;lon;timestamp;temperature;humidity
4643;DHT22;2334;48.710;9.622;2022-07-23T00:00:14;23.50;99.90
4643;DHT22;2334;48.710;9.622;2022-07-23T00:02:41;23.30;99.90
4643;DHT22;2334;48.710;9.622;2022-07-23T00:05:09;23.20;99.90
4643;DHT22;2334;48.710;9.622;2022-07-23T00:07:36;23.20;99.90
4643;DHT22;2334;48.710;9.622;2022-07-23T00:10:04;23.10;99.90
4643;DHT22;2334;48.710;9.622;2022-07-23T00:12:31;23.00;99.90
4643;DHT22;2334;48.710;9.622;2022-07-23T00:14:59;23.10;99.90
4643;DHT22;2334;48.710;9.622;2022-07-23T00:17:26;23.10;99.90
4643;DHT22;2334;48.710;9.622;2022-07-23T00:19:53;23.10;99.90
4643;DHT22;2334;48.710;9.622;2022-07-23T00:22:20;23.00;99.90
4643;DHT22;2334;48.710;9.622;2022-07-23T00:24:47;23.10;99.90
4643;DHT22;2334;48.710;9.622;2022-07-23T00:27:14;23.10;99.90
4643;DHT22;2334;48.710;9.622;2022-07-23T00:29:41;23.10;99.90
4643;DHT22;2334;48.710;9.622;2022-07-23T00:32:10;23.10;99.90
4643;DHT22;2334;48.710;9.622;2022-07-23T00:34:36;23.10;99.90
4643;DHT22;2334;48.710;9.622;2022-07-23T00:37:04;23.00;99.90
4643;DHT22;2334;48.710;9.622;2022-07-23T00:39:30;23.00;99.90
4643;DHT22;2334;48.710;9.622;2022-07-23T00:41:57;23.00;99.90
4643;DHT22;2334;48.710;9.622;2022-07-23T00:44:26;22.90;99.90
4643;DHT22;2334;48.710;9.622;2022-07-23T00:46:54;22.90;99.90
4643;DHT22;2334;48.710;9.622;2022-07-23T00:49:24;22.90;99.90
4643;DHT22;2334;48.710;9.622;2022-07-23T00:51:51;22.90;99.90
4643;DHT22;2334;48.710;9.622;2022-07-23T00:54:18;22.90;99.90
4643;DHT22;2334;48.710;9.622;2022-07-23T00:56:47;22.80;99.90
4643;DHT22;2334;48.710;9.622;2022-07-23T00:59:14;22.80;99.90
4643;DHT22;2334;48.710;9.622;2022-07-23T01:01:41;22.90;99.90
4643;DHT22;2334;48.710;9.622;2022-07-23T01:04:09;22.80;99.90
4643;DHT22;2334;48.710;9.622;2022-07-23T01:06:38;22.80;99.90
4643;DHT22;2334;48.710;9.622;2022-07-23T01:09:06;22.70;99.90
4643;DHT22;2334;48.710;9.622;2022-07-23T01:11:33;22.50;99.90
4643;DHT22;2334;48.710;9.622;2022-07-23T01:14:08;22.30;99.90
4643;DHT22;2334;48.710;9.622;2022-07-23T01:16:35;22.30;99.90
4643;DHT22;2334;48.710;9.622;2022-07-23T01:19:02;22.30;99.90
4643;DHT22;2334;48.710;9.622;2022-07-23T01:21:33;22.40;99.90
4643;DHT22;2334;48.710;9.622;2022-07-23T01:24:02;22.50;99.90
4643;DHT22;2334;48.710;9.622;2022-07-23T01:26:29;22.40;99.90
4643;DHT22;2334;48.710;9.622;2022-07-23T01:28:56;22.40;99.90
4643;DHT22;2334;48.710;9.622;2022-07-23T01:31:23;22.40;99.90
4643;DHT22;2334;48.710;9.622;2022-07-23T01:33:51;22.50;99.90
4643;DHT22;2334;48.710;9.622;2022-07-23T01:36:18;22.60;99.90
4643;DHT22;2334;48.710;9.622;2022-07-23T01:38:45;22.60;99.90
4643;DHT22;2334;48.710;9.622;2022-07-23T01:41:13;22.50;99.90
4643;DHT22;2334;48.710;9.622;2022-07-23T01:43:40;22.50;99.90
4643;DHT22;2334;48.710;9.622;2022-07-23T01:46:07;22.50;99.90
4643;DHT22;2334;48.710;9.622;2022-07-23T01:48:34;22.40;99.90
4643;DHT22;2334;48.710;9.622;2022-07-23T01:51:01;22.30;99.90
4643;DHT22;2334;48.710;9.622;2022-07-23T01:53:28;22.00;99.90
4643;DHT22;2334;48.710;9.622;2022-07-23T01:55:56;21.90;99.90
4643;DHT22;2334;48.710;9.622;2022-07-23T01:58:25;22.00;99.90
4643;DHT22;2334;48.710;9.622;2022-07-23T02:00:51;22.10;99.90
4643;DHT22;2334;48.710;9.622;2022-07-23T02:03:19;22.20;99.90
4643;DHT22;2334;48.710;9.622;2022-07-23T02:05:46;22.20;99.90
4643;DHT22;2334;48.710;9.622;2022-07-23T02:08:13;22.20;99.90
4643;DHT22;2334;48.710;9.622;2022-07-23T02:10:40;22.30;99.90
4643;DHT22;2334;48.710;9.622;2022-07-23T02:13:07;22.30;99.90
4643;DHT22;2334;48.710;9.622;2022-07-23T02:15:35;22.20;99.90
4643;DHT22;2334;48.710;9.622;2022-07-23T02:18:02;22.20;99.90
4643;DHT22;2334;48.710;9.622;2022-07-23T02:20:29;22.30;99.90
4643;DHT22;2334;48.710;9.622;2022-07-23T02:22:56;22.20;99.90
4643;DHT22;2334;48.710;9.622;2022-07-23T02:25:23;22.00;99.90
4643;DHT22;2334;48.710;9.622;2022-07-23T02:27:49;21.90;99.90
4643;DHT22;2334;48.710;9.622;2022-07-23T02:30:16;21.90;99.90
4643;DHT22;2334;48.710;9.622;2022-07-23T02:32:44;22.00;99.90
4643;DHT22;2334;48.710;9.622;2022-07-23T02:35:11;21.90;99.90
4643;DHT22;2334;48.710;9.622;2022-07-23T02:37:38;21.70;99.90
4643;DHT22;2334;48.710;9.622;2022-07-23T02:40:06;21.70;99.90
4643;DHT22;2334;48.710;9.622;2022-07-23T02:42:33;21.70;99.90
4643;DHT22;2334;48.710;9.622;2022-07-23T02:45:00;21.70;99.90
4643;DHT22;2334;48.710;9.622;2022-07-23T02:47:27;21.70;99.90
4643;DHT22;2334;48.710;9.622;2022-07-23T02:49:55;21.60;99.90
4643;DHT22;2334;48.710;9.622;2022-07-23T02:52:22;21.60;99.90
4643;DHT22;2334;48.710;9.622;2022-07-23T02:54:49;21.40;99.90
4643;DHT22;2334;48.710;9.622;2022-07-23T02:57:16;21.10;99.90
4643;DHT22;2334;48.710;9.622;2022-07-23T02:59:43;21.00;99.90
4643;DHT22;2334;48.710;9.622;2022-07-23T03:02:10;21.10;99.90
4643;DHT22;2334;48.710;9.622;2022-07-23T03:04:37;21.10;99.90
4643;DHT22;2334;48.710;9.622;2022-07-23T03:07:05;21.00;99.90
4643;DHT22;2334;48.710;9.622;2022-07-23T03:09:32;20.90;99.90
4643;DHT22;2334;48.710;9.622;2022-07-23T03:11:59;21.00;99.90
4643;DHT22;2334;48.710;9.622;2022-07-23T03:14:25;21.10;99.90
4643;DHT22;2334;48.710;9.622;2022-07-23T03:16:53;21.10;99.90
4643;DHT22;2334;48.710;9.622;2022-07-23T03:19:20;21.10;99.90
4643;DHT22;2334;48.710;9.622;2022-07-23T03:21:47;21.10;99.90
4643;DHT22;2334;48.710;9.622;2022-07-23T03:24:15;21.10;99.90
4643;DHT22;2334;48.710;9.622;2022-07-23T03:26:43;21.00;99.90
4643;DHT22;2334;48.710;9.622;2022-07-23T03:29:10;21.00;99.90
4643;DHT22;2334;48.710;9.622;2022-07-23T03:31:37;21.00;99.90
4643;DHT22;2334;48.710;9.622;2022-07-23T03:34:04;21.10;99.90
4643;DHT22;2334;48.710;9.622;2022-07-23T03:36:31;21.10;99.90
4643;DHT22;2334;48.710;9.622;2022-07-23T03:38:58;21.10;99.90
4643;DHT22;2334;48.710;9.622;2022-07-23T03:41:26;21.00;99.90
4643;DHT22;2334;48.710;9.622;2022-07-23T03:43:53;21.00;99.90
4643;DHT22;2334;48.710;9.622;2022-07-23T03:46:20;20.90;99.90
4643;DHT22;2334;48.710;9.622;2022-07-23T03:48:47;20.90;99.90
4643;DHT22;2334;48.710;9.622;2022-07-23T03:51:14;20.90;99.90
4643;DHT22;2334;48.710;9.622;2022-07-23T03:53:41;20.90;99.90
4643;DHT22;2334;48.710;9.622;2022-07-23T03:56:08;20.80;99.90
4643;DHT22;2334;48.710;9.622;2022-07-23T03:58:36;20.70;99.90
4643;DHT22;2334;48.710;9.622;2022-07-23T04:01:03;20.70;99.90
4643;DHT22;2334;48.710;9.622;2022-07-23T04:03:30;20.70;99.90
4643;DHT22;2334;48.710;9.622;2022-07-23T04:05:57;20.70;99.90
4643;DHT22;2334;48.710;9.622;2022-07-23T04:08:24;20.60;99.90
4643;DHT22;2334;48.710;9.622;2022-07-23T04:10:51;20.50;99.90
4643;DHT22;2334;48.710;9.622;2022-07-23T04:13:19;20.60;99.90
4643;DHT22;2334;48.710;9.622;2022-07-23T04:15:47;20.60;99.90
4643;DHT22;2334;48.710;9.622;2022-07-23T04:18:14;20.50;99.90
4643;DHT22;2334;48.710;9.622;2022-07-23T04:20:42;20.50;99.90
4643;DHT22;2334;48.710;9.622;2022-07-23T04:23:10;20.50;99.90
4643;DHT22;2334;48.710;9.622;2022-07-23T04:25:37;20.50;99.90
4643;DHT22;2334;48.710;9.622;2022-07-23T04:28:04;20.50;99.90
4643;DHT22;2334;48.710;9.622;2022-07-23T04:30:31;20.50;99.90
4643;DHT22;2334;48.710;9.622;2022-07-23T04:32:59;20.40;99.90
4643;DHT22;2334;48.710;9.622;2022-07-23T04:35:26;20.50;99.90
4643;DHT22;2334;48.710;9.622;2022-07-23T04:37:53;20.60;99.90
4643;DHT22;2334;48.710;9.622;2022-07-23T04:40:20;20.60;99.90
4643;DHT22;2334;48.710;9.622;2022-07-23T04:42:47;20.60;99.90
4643;DHT22;2334;48.710;9.622;2022-07-23T04:45:14;20.60;99.90
4643;DHT22;2334;48.710;9.622;2022-07-23T04:47:40;20.60;99.90
4643;DHT22;2334;48.710;9.622;2022-07-23T04:50:09;20.70;99.90
4643;DHT22;2334;48.710;9.622;2022-07-23T04:52:36;20.80;99.90
4643;DHT22;2334;48.710;9.622;2022-07-23T04:55:04;20.70;99.90
4643;DHT22;2334;48.710;9.622;2022-07-23T04:57:31;20.70;99.90
4643;DHT22;2334;48.710;9.622;2022-07-23T04:59:58;20.50;99.90
4643;DHT22;2334;48.710;9.622;2022-07-23T05:02:25;20.40;99.90
4643;DHT22;2334;48.710;9.622;2022-07-23T05:04:52;20.50;99.90
4643;DHT22;2334;48.710;9.622;2022-07-23T05:07:20;20.50;99.90
4643;DHT22;2334;48.710;9.622;2022-07-23T05:09:47;20.40;99.90
4643;DHT22;2334;48.710;9.622;2022-07-23T05:12:14;20.50;99.90
4643;DHT22;2334;48.710;9.622;2022-07-23T05:14:41;20.50;99.90
4643;DHT22;2334;48.710;9.622;2022-07-23T05:17:08;20.60;99.90
4643;DHT22;2334;48.710;9.622;2022-07-23T05:19:35;20.50;99.90
4643;DHT22;2334;48.710;9.622;2022-07-23T05:22:02;20.50;99.90
4643;DHT22;2334;48.710;9.622;2022-07-23T05:24:30;20.60;99.90
4643;DHT22;2334;48.710;9.622;2022-07-23T05:26:57;20.70;99.90
4643;DHT22;2334;48.710;9.622;2022-07-23T05:29:24;20.80;99.90
4643;DHT22;2334;48.710;9.622;2022-07-23T05:31:51;20.90;99.90
4643;DHT22;2334;48.710;9.622;2022-07-23T05:34:18;21.00;99.90
4643;DHT22;2334;48.710;9.622;2022-07-23T05:36:45;21.20;99.90
4643;DHT22;2334;48.710;9.622;2022-07-23T05:39:12;21.30;99.90
4643;DHT22;2334;48.710;9.622;2022-07-23T05:41:40;21.40;99.90
4643;DHT22;2334;48.710;9.622;2022-07-23T05:44:07;21.40;99.90
4643;DHT22;2334;48.710;9.622;2022-07-23T05:46:34;21.50;99.90
4643;DHT22;2334;48.710;9.622;2022-07-23T05:49:01;21.50;99.90
4643;DHT22;2334;48.710;9.622;2022-07-23T05:51:28;21.50;99.90
4643;DHT22;2334;48.710;9.622;2022-07-23T05:53:54;21.40;99.90
4643;DHT22;2334;48.710;9.622;2022-07-23T05:56:21;21.50;99.90
4643;DHT22;2334;48.710;9.622;2022-07-23T05:58:50;21.50;99.90
4643;DHT22;2334;48.710;9.622;2022-07-23T06:01:16;21.70;99.90
4643;DHT22;2334;48.710;9.622;2022-07-23T06:03:43;21.90;99.90
4643;DHT22;2334;48.710;9.622;2022-07-23T06:06:10;22.00;99.90
4643;DHT22;2334;48.710;9.622;2022-07-23T06:08:37;22.30;99.90
4643;DHT22;2334;48.710;9.622;2022-07-23T06:11:04;22.40;99.90
4643;DHT22;2334;48.710;9.622;2022-07-23T06:13:31;22.40;99.90
4643;DHT22;2334;48.710;9.622;2022-07-23T06:16:00;22.50;99.90
4643;DHT22;2334;48.710;9.622;2022-07-23T06:18:27;22.50;99.90
4643;DHT22;2334;48.710;9.622;2022-07-23T06:20:53;22.50;99.90
4643;DHT22;2334;48.710;9.622;2022-07-23T06:23:21;22.40;99.90
4643;DHT22;2334;48.710;9.622;2022-07-23T06:25:48;22.40;99.90
4643;DHT22;2334;48.710;9.622;2022-07-23T06:28:15;22.50;99.90
4643;DHT22;2334;48.710;9.622;2022-07-23T06:30:42;22.60;99.90
4643;DHT22;2334;48.710;9.622;2022-07-23T06:33:10;22.70;99.90
4643;DHT22;2334;48.710;9.622;2022-07-23T06:35:38;22.80;99.90
4643;DHT22;2334;48.710;9.622;2022-07-23T06:38:05;22.90;99.90
4643;DHT22;2334;48.710;9.622;2022-07-23T06:40:31;23.10;99.90
4643;DHT22;2334;48.710;9.622;2022-07-23T06:42:58;23.20;99.90
4643;DHT22;2334;48.710;9.622;2022-07-23T06:45:25;23.40;99.90
4643;DHT22;2334;48.710;9.622;2022-07-23T06:47:52;23.60;99.90
4643;DHT22;2334;48.710;9.622;2022-07-23T06:50:21;23.70;99.90
4643;DHT22;2334;48.710;9.622;2022-07-23T06:52:48;23.80;99.90
4643;DHT22;2334;48.710;9.622;2022-07-23T06:55:15;24.10;99.90
4643;DHT22;2334;48.710;9.622;2022-07-23T06:57:42;24.20;99.90
4643;DHT22;2334;48.710;9.622;2022-07-23T07:00:10;24.30;99.90
4643;DHT22;2334;48.710;9.622;2022-07-23T07:02:37;24.40;99.90
4643;DHT22;2334;48.710;9.622;2022-07-23T07:05:05;24.50;99.90
4643;DHT22;2334;48.710;9.622;2022-07-23T07:07:33;24.60;99.90
4643;DHT22;2334;48.710;9.622;2022-07-23T07:10:00;24.90;99.90
4643;DHT22;2334;48.710;9.622;2022-07-23T07:12:27;24.80;99.90
4643;DHT22;2334;48.710;9.622;2022-07-23T07:14:54;24.70;99.90
4643;DHT22;2334;48.710;9.622;2022-07-23T07:17:22;24.60;99.90
4643;DHT22;2334;48.710;9.622;2022-07-23T07:19:49;24.70;99.90
4643;DHT22;2334;48.710;9.622;2022-07-23T07:22:16;24.70;99.90
4643;DHT22;2334;48.710;9.622;2022-07-23T07:24:44;24.80;99.90
4643;DHT22;2334;48.710;9.622;2022-07-23T07:27:11;24.90;99.90
4643;DHT22;2334;48.710;9.622;2022-07-23T07:29:38;24.90;99.90
4643;DHT22;2334;48.710;9.622;2022-07-23T07:32:05;24.90;99.90
4643;DHT22;2334;48.710;9.622;2022-07-23T07:34:32;24.90;99.90
4643;DHT22;2334;48.710;9.622;2022-07-23T07:36:59;25.00;99.90
4643;DHT22;2334;48.710;9.622;2022-07-23T07:39:26;25.20;99.90
4643;DHT22;2334;48.710;9.622;2022-07-23T07:41:54;25.10;99.90
4643;DHT22;2334;48.710;9.622;2022-07-23T07:44:21;25.10;99.90
4643;DHT22;2334;48.710;9.622;2022-07-23T07:46:48;25.00;99.90
4643;DHT22;2334;48.710;9.622;2022-07-23T07:49:15;25.10;99.90
4643;DHT22;2334;48.710;9.622;2022-07-23T07:51:43;25.40;99.90
4643;DHT22;2334;48.710;9.622;2022-07-23T07:54:10;25.50;99.90
4643;DHT22;2334;48.710;9.622;2022-07-23T07:56:37;25.90;99.90
4643;DHT22;2334;48.710;9.622;2022-07-23T07:59:05;26.00;99.90
4643;DHT22;2334;48.710;9.622;2022-07-23T08:01:32;25.70;99.90
4643;DHT22;2334;48.710;9.622;2022-07-23T08:03:59;25.80;99.90
4643;DHT22;2334;48.710;9.622;2022-07-23T08:06:26;26.00;99.90
4643;DHT22;2334;48.710;9.622;2022-07-23T08:08:53;26.40;99.90
4643;DHT22;2334;48.710;9.622;2022-07-23T08:11:20;26.60;99.90
4643;DHT22;2334;48.710;9.622;2022-07-23T08:13:47;26.70;99.90
4643;DHT22;2334;48.710;9.622;2022-07-23T08:16:16;27.10;99.90
4643;DHT22;2334;48.710;9.622;2022-07-23T08:18:43;27.10;99.90
4643;DHT22;2334;48.710;9.622;2022-07-23T08:21:10;27.00;99.90
4643;DHT22;2334;48.710;9.622;2022-07-23T08:23:36;26.90;99.90
4643;DHT22;2334;48.710;9.622;2022-07-23T08:26:04;26.90;99.90
4643;DHT22;2334;48.710;9.622;2022-07-23T08:28:30;26.80;99.90
4643;DHT22;2334;48.710;9.622;2022-07-23T08:30:59;26.70;99.90
4643;DHT22;2334;48.710;9.622;2022-07-23T08:33:28;26.70;99.90
4643;DHT22;2334;48.710;9.622;2022-07-23T08:35:55;26.80;99.90
4643;DHT22;2334;48.710;9.622;2022-07-23T08:38:22;26.60;99.90
4643;DHT22;2334;48.710;9.622;2022-07-23T08:40:52;26.60;99.90
4643;DHT22;2334;48.710;9.622;2022-07-23T08:43:21;26.40;99.90
4643;DHT22;2334;48.710;9.622;2022-07-23T08:45:49;26.60;99.90
4643;DHT22;2334;48.710;9.622;2022-07-23T08:48:18;26.90;99.90
4643;DHT22;2334;48.710;9.622;2022-07-23T08:50:47;27.00;99.90
4643;DHT22;2334;48.710;9.622;2022-07-23T08:53:15;27.00;99.90
4643;DHT22;2334;48.710;9.622;2022-07-23T08:55:43;27.30;99.90
4643;DHT22;2334;48.710;9.622;2022-07-23T08:58:11;27.70;99.90
4643;DHT22;2334;48.710;9.622;2022-07-23T09:00:38;28.00;99.90
4643;DHT22;2334;48.710;9.622;2022-07-23T09:03:05;27.90;99.90
4643;DHT22;2334;48.710;9.622;2022-07-23T09:05:32;27.80;99.90
4643;DHT22;2334;48.710;9.622;2022-07-23T09:08:11;27.80;99.90
4643;DHT22;2334;48.710;9.622;2022-07-23T09:10:51;27.70;99.90
4643;DHT22;2334;48.710;9.622;2022-07-23T09:13:30;27.50;99.90
4643;DHT22;2334;48.710;9.622;2022-07-23T09:15:59;27.80;99.90
4643;DHT22;2334;48.710;9.622;2022-07-23T09:18:30;28.20;99.90
4643;DHT22;2334;48.710;9.622;2022-07-23T09:21:15;28.00;99.90
4643;DHT22;2334;48.710;9.622;2022-07-23T09:23:45;28.30;99.90
4643;DHT22;2334;48.710;9.622;2022-07-23T09:26:23;28.70;99.90
4643;DHT22;2334;48.710;9.622;2022-07-23T09:28:55;28.80;99.90
4643;DHT22;2334;48.710;9.622;2022-07-23T09:31:23;28.70;99.90
4643;DHT22;2334;48.710;9.622;2022-07-23T09:33:50;28.60;99.90
4643;DHT22;2334;48.710;9.622;2022-07-23T09:36:27;28.60;99.90
4643;DHT22;2334;48.710;9.622;2022-07-23T09:38:55;28.40;99.90
4643;DHT22;2334;48.710;9.622;2022-07-23T09:41:23;28.50;99.90
4643;DHT22;2334;48.710;9.622;2022-07-23T09:43:55;28.60;99.90
4643;DHT22;2334;48.710;9.622;2022-07-23T09:46:24;28.90;99.90
4643;DHT22;2334;48.710;9.622;2022-07-23T09:48:52;29.00;99.90
4643;DHT22;2334;48.710;9.622;2022-07-23T09:51:22;28.90;99.90
4643;DHT22;2334;48.710;9.622;2022-07-23T09:53:52;28.90;99.90
4643;DHT22;2334;48.710;9.622;2022-07-23T09:56:22;28.60;99.90
4643;DHT22;2334;48.710;9.622;2022-07-23T09:58:50;28.70;99.90
4643;DHT22;2334;48.710;9.622;2022-07-23T10:01:27;28.70;99.90
4643;DHT22;2334;48.710;9.622;2022-07-23T10:03:55;28.20;99.90
4643;DHT22;2334;48.710;9.622;2022-07-23T10:06:22;28.60;99.90
4643;DHT22;2334;48.710;9.622;2022-07-23T10:08:51;28.90;99.90
4643;DHT22;2334;48.710;9.622;2022-07-23T10:11:21;29.20;99.90
4643;DHT22;2334;48.710;9.622;2022-07-23T10:13:48;29.30;99.90
4643;DHT22;2334;48.710;9.622;2022-07-23T10:16:18;29.50;99.90
4643;DHT22;2334;48.710;9.622;2022-07-23T10:18:46;29.80;99.90
4643;DHT22;2334;48.710;9.622;2022-07-23T10:21:18;29.60;99.90
4643;DHT22;2334;48.710;9.622;2022-07-23T10:23:57;29.60;99.90
4643;DHT22;2334;48.710;9.622;2022-07-23T10:26:36;29.50;99.90
4643;DHT22;2334;48.710;9.622;2022-07-23T10:29:12;29.00;99.90
4643;DHT22;2334;48.710;9.622;2022-07-23T10:31:50;28.60;99.90
4643;DHT22;2334;48.710;9.622;2022-07-23T10:34:24;28.60;99.90
4643;DHT22;2334;48.710;9.622;2022-07-23T10:36:56;28.70;99.90
4643;DHT22;2334;48.710;9.622;2022-07-23T10:39:28;28.80;99.90
4643;DHT22;2334;48.710;9.622;2022-07-23T10:42:10;29.00;99.90
4643;DHT22;2334;48.710;9.622;2022-07-23T10:44:41;29.80;99.90
4643;DHT22;2334;48.710;9.622;2022-07-23T10:47:09;30.40;99.90
4643;DHT22;2334;48.710;9.622;2022-07-23T10:50:18;30.00;99.90
4643;DHT22;2334;48.710;9.622;2022-07-23T10:55:47;29.50;99.90
4643;DHT22;2334;48.710;9.622;2022-07-23T10:58:47;29.60;99.90
4643;DHT22;2334;48.710;9.622;2022-07-23T11:01:32;29.40;99.90
4643;DHT22;2334;48.710;9.622;2022-07-23T11:03:59;29.10;99.90
4643;DHT22;2334;48.710;9.622;2022-07-23T11:09:39;29.20;99.90
4643;DHT22;2334;48.710;9.622;2022-07-23T11:12:34;29.30;99.90
4643;DHT22;2334;48.710;9.622;2022-07-23T11:15:07;29.50;99.90
4643;DHT22;2334;48.710;9.622;2022-07-23T11:17:36;30.10;99.90
4643;DHT22;2334;48.710;9.622;2022-07-23T11:20:16;30.10;99.90
4643;DHT22;2334;48.710;9.622;2022-07-23T11:22:51;30.00;99.90
4643;DHT22;2334;48.710;9.622;2022-07-23T11:25:35;30.60;99.90
4643;DHT22;2334;48.710;9.622;2022-07-23T11:28:16;30.60;99.90
4643;DHT22;2334;48.710;9.622;2022-07-23T11:30:48;30.60;99.90
4643;DHT22;2334;48.710;9.622;2022-07-23T11:33:21;30.50;99.90
4643;DHT22;2334;48.710;9.622;2022-07-23T11:35:59;30.80;99.90
4643;DHT22;2334;48.710;9.622;2022-07-23T11:38:27;31.00;99.90
4643;DHT22;2334;48.710;9.622;2022-07-23T11:40:57;31.30;99.90
4643;DHT22;2334;48.710;9.622;2022-07-23T11:43:24;31.50;99.90
4643;DHT22;2334;48.710;9.622;2022-07-23T11:45:54;31.50;99.90
4643;DHT22;2334;48.710;9.622;2022-07-23T11:48:24;31.30;99.90
4643;DHT22;2334;48.710;9.622;2022-07-23T11:50:52;31.00;99.90
4643;DHT22;2334;48.710;9.622;2022-07-23T11:53:23;30.60;99.90
4643;DHT22;2334;48.710;9.622;2022-07-23T11:55:51;30.40;99.90
4643;DHT22;2334;48.710;9.622;2022-07-23T11:58:18;30.10;99.90
4643;DHT22;2334;48.710;9.622;2022-07-23T12:00:45;29.90;99.90
4643;DHT22;2334;48.710;9.622;2022-07-23T12:03:14;29.80;99.90
4643;DHT22;2334;48.710;9.622;2022-07-23T12:05:41;30.00;99.90
4643;DHT22;2334;48.710;9.622;2022-07-23T12:08:09;30.50;99.90
4643;DHT22;2334;48.710;9.622;2022-07-23T12:10:38;31.10;99.90
4643;DHT22;2334;48.710;9.622;2022-07-23T12:13:08;31.30;99.90
4643;DHT22;2334;48.710;9.622;2022-07-23T12:15:38;31.30;99.90
4643;DHT22;2334;48.710;9.622;2022-07-23T12:18:08;31.30;99.90
4643;DHT22;2334;48.710;9.622;2022-07-23T12:20:39;31.70;99.90
4643;DHT22;2334;48.710;9.622;2022-07-23T12:23:08;32.00;99.90
4643;DHT22;2334;48.710;9.622;2022-07-23T12:25:37;32.10;99.90
4643;DHT22;2334;48.710;9.622;2022-07-23T12:28:06;32.10;99.90
4643;DHT22;2334;48.710;9.622;2022-07-23T12:30:38;32.30;99.90
4643;DHT22;2334;48.710;9.622;2022-07-23T12:33:08;32.20;99.90
4643;DHT22;2334;48.710;9.622;2022-07-23T12:35:38;32.40;99.90
4643;DHT22;2334;48.710;9.622;2022-07-23T12:38:08;32.80;99.90
4643;DHT22;2334;48.710;9.622;2022-07-23T12:40:37;32.30;99.90
4643;DHT22;2334;48.710;9.622;2022-07-23T12:43:10;32.60;99.90
4643;DHT22;2334;48.710;9.622;2022-07-23T12:45:45;32.40;99.90
4643;DHT22;2334;48.710;9.622;2022-07-23T12:48:24;32.60;99.90
4643;DHT22;2334;48.710;9.622;2022-07-23T12:50:55;32.70;99.90
4643;DHT22;2334;48.710;9.622;2022-07-23T12:53:23;32.10;99.90
4643;DHT22;2334;48.710;9.622;2022-07-23T12:55:57;31.70;99.90
4643;DHT22;2334;48.710;9.622;2022-07-23T12:58:25;32.00;99.90
4643;DHT22;2334;48.710;9.622;2022-07-23T13:01:01;32.60;99.90
4643;DHT22;2334;48.710;9.622;2022-07-23T13:03:32;32.80;99.90
4643;DHT22;2334;48.710;9.622;2022-07-23T13:06:01;33.10;99.90
4643;DHT22;2334;48.710;9.622;2022-07-23T13:08:30;33.40;99.90
4643;DHT22;2334;48.710;9.622;2022-07-23T13:10:58;33.30;99.90
4643;DHT22;2334;48.710;9.622;2022-07-23T13:13:27;33.60;99.90
4643;DHT22;2334;48.710;9.622;2022-07-23T13:15:56;33.80;99.40
4643;DHT22;2334;48.710;9.622;2022-07-23T13:18:23;33.30;99.70
4643;DHT22;2334;48.710;9.622;2022-07-23T13:20:51;33.30;99.90
4643;DHT22;2334;48.710;9.622;2022-07-23T13:23:19;33.50;99.70
4643;DHT22;2334;48.710;9.622;2022-07-23T13:25:47;33.30;99.90
4643;DHT22;2334;48.710;9.622;2022-07-23T13:28:15;33.30;99.90
4643;DHT22;2334;48.710;9.622;2022-07-23T13:30:43;33.50;99.90
4643;DHT22;2334;48.710;9.622;2022-07-23T13:33:10;33.50;99.80
4643;DHT22;2334;48.710;9.622;2022-07-23T13:35:37;33.50;99.90
4643;DHT22;2334;48.710;9.622;2022-07-23T13:38:05;33.50;99.70
4643;DHT22;2334;48.710;9.622;2022-07-23T13:40:35;33.20;99.70
4643;DHT22;2334;48.710;9.622;2022-07-23T13:43:04;33.20;99.90
4643;DHT22;2334;48.710;9.622;2022-07-23T13:45:31;33.10;99.90
4643;DHT22;2334;48.710;9.622;2022-07-23T13:47:58;32.90;99.90
4643;DHT22;2334;48.710;9.622;2022-07-23T13:50:25;32.60;99.10
4643;DHT22;2334;48.710;9.622;2022-07-23T13:52:52;31.90;99.90
4643;DHT22;2334;48.710;9.622;2022-07-23T13:55:19;31.70;99.90
4643;DHT22;2334;48.710;9.622;2022-07-23T13:57:47;31.80;99.90
4643;DHT22;2334;48.710;9.622;2022-07-23T14:00:15;31.40;99.90
4643;DHT22;2334;48.710;9.622;2022-07-23T14:02:42;31.80;99.90
4643;DHT22;2334;48.710;9.622;2022-07-23T14:05:10;32.00;99.80
4643;DHT22;2334;48.710;9.622;2022-07-23T14:07:38;32.50;99.50
4643;DHT22;2334;48.710;9.622;2022-07-23T14:10:06;32.70;99.20
4643;DHT22;2334;48.710;9.622;2022-07-23T14:12:33;32.80;99.40
4643;DHT22;2334;48.710;9.622;2022-07-23T14:15:02;32.70;98.90
4643;DHT22;2334;48.710;9.622;2022-07-23T14:17:29;32.90;98.80
4643;DHT22;2334;48.710;9.622;2022-07-23T14:19:57;32.90;99.20
4643;DHT22;2334;48.710;9.622;2022-07-23T14:22:24;33.30;99.10
4643;DHT22;2334;48.710;9.622;2022-07-23T14:24:51;33.10;98.90
4643;DHT22;2334;48.710;9.622;2022-07-23T14:27:18;32.70;98.80
4643;DHT22;2334;48.710;9.622;2022-07-23T14:29:44;32.40;99.20
4643;DHT22;2334;48.710;9.622;2022-07-23T14:32:13;31.60;99.80
4643;DHT22;2334;48.710;9.622;2022-07-23T14:34:40;31.40;99.90
4643;DHT22;2334;48.710;9.622;2022-07-23T14:37:07;31.30;99.90
4643;DHT22;2334;48.710;9.622;2022-07-23T14:39:34;31.60;99.90
4643;DHT22;2334;48.710;9.622;2022-07-23T14:42:01;31.20;99.90
4643;DHT22;2334;48.710;9.622;2022-07-23T14:44:28;30.90;99.90
4643;DHT22;2334;48.710;9.622;2022-07-23T14:46:55;30.80;99.90
4643;DHT22;2334;48.710;9.622;2022-07-23T14:49:24;30.60;99.90
4643;DHT22;2334;48.710;9.622;2022-07-23T14:51:51;30.70;99.90
4643;DHT22;2334;48.710;9.622;2022-07-23T14:54:18;30.20;99.90
4643;DHT22;2334;48.710;9.622;2022-07-23T14:56:45;30.30;99.90
4643;DHT22;2334;48.710;9.622;2022-07-23T14:59:12;30.40;99.90
4643;DHT22;2334;48.710;9.622;2022-07-23T15:01:39;30.40;99.90
4643;DHT22;2334;48.710;9.622;2022-07-23T15:04:07;30.30;99.90
4643;DHT22;2334;48.710;9.622;2022-07-23T15:06:35;30.30;99.90
4643;DHT22;2334;48.710;9.622;2022-07-23T15:09:04;30.20;99.90
4643;DHT22;2334;48.710;9.622;2022-07-23T15:11:31;30.10;99.90
4643;DHT22;2334;48.710;9.622;2022-07-23T15:13:59;30.40;99.90
4643;DHT22;2334;48.710;9.622;2022-07-23T15:16:27;30.30;99.90
4643;DHT22;2334;48.710;9.622;2022-07-23T15:18:54;30.50;99.90
4643;DHT22;2334;48.710;9.622;2022-07-23T15:21:21;30.40;99.90
4643;DHT22;2334;48.710;9.622;2022-07-23T15:23:49;30.70;99.90
4643;DHT22;2334;48.710;9.622;2022-07-23T15:26:17;31.30;99.90
4643;DHT22;2334;48.710;9.622;2022-07-23T15:28:44;31.70;99.90
4643;DHT22;2334;48.710;9.622;2022-07-23T15:31:11;32.20;99.90
4643;DHT22;2334;48.710;9.622;2022-07-23T15:33:38;32.80;99.30
4643;DHT22;2334;48.710;9.622;2022-07-23T15:36:06;33.30;99.30
4643;DHT22;2334;48.710;9.622;2022-07-23T15:38:33;33.40;98.80
4643;DHT22;2334;48.710;9.622;2022-07-23T15:41:02;33.20;98.60
4643;DHT22;2334;48.710;9.622;2022-07-23T15:43:29;33.30;98.50
4643;DHT22;2334;48.710;9.622;2022-07-23T15:45:56;33.20;98.70
4643;DHT22;2334;48.710;9.622;2022-07-23T15:48:24;32.70;98.60
4643;DHT22;2334;48.710;9.622;2022-07-23T15:50:51;32.40;98.70
4643;DHT22;2334;48.710;9.622;2022-07-23T15:53:19;32.50;99.40
4643;DHT22;2334;48.710;9.622;2022-07-23T15:55:46;32.90;98.70
4643;DHT22;2334;48.710;9.622;2022-07-23T15:58:15;33.20;98.30
4643;DHT22;2334;48.710;9.622;2022-07-23T16:00:42;33.60;97.90
4643;DHT22;2334;48.710;9.622;2022-07-23T16:03:09;34.20;98.10
4643;DHT22;2334;48.710;9.622;2022-07-23T16:05:36;34.30;96.90
4643;DHT22;2334;48.710;9.622;2022-07-23T16:08:04;34.00;96.60
4643;DHT22;2334;48.710;9.622;2022-07-23T16:10:31;34.30;96.20
4643;DHT22;2334;48.710;9.622;2022-07-23T16:12:58;34.30;96.20
4643;DHT22;2334;48.710;9.622;2022-07-23T16:15:28;33.50;96.00